sensor_id;sensor_type;location;lat;lon;timestamp;pressure;altitude;pressure_sealevel;temperature;humidity
24031;BME280;12240;51.142;22.486;2023-03-22T17:14:22;99044.81;;;11.54;100.00
24031;BME280;12240;51.142;22.486;2023-03-22T17:16:49;98974.25;;;10.92;100.00
24031;BME280;12240;51.142;22.486;2023-03-22T17:19:16;99026.28;;;11.20;100.00
24031;BME280;12240;51.142;22.486;2023-03-22T17:21:43;99034.44;;;11.19;100.00
24031;BME280;12240;51.142;22.486;2023-03-22T17:24:11;99025.75;;;11.09;100.00
24031;BME280;12240;51.142;22.486;2023-03-22T17:26:38;99027.25;;;11.11;100.00
24031;BME280;12240;51.142;22.486;2023-03-22T17:29:06;99002.72;;;10.84;100.00
24031;BME280;12240;51.142;22.486;2023-03-22T17:31:36;98995.56;;;10.76;100.00
24031;BME280;12240;51.142;22.486;2023-03-22T17:34:03;99033.22;;;10.97;100.00
24031;BME280;12240;51.142;22.486;2023-03-22T17:36:30;99035.03;;;10.89;100.00
24031;BME280;12240;51.142;22.486;2023-03-22T17:38:57;99036.53;;;10.83;100.00
24031;BME280;12240;51.142;22.486;2023-03-22T17:41:24;99020.16;;;10.70;100.00
24031;BME280;12240;51.142;22.486;2023-03-22T17:43:54;99034.66;;;10.68;100.00
24031;BME280;12240;51.142;22.486;2023-03-22T17:46:23;99024.63;;;10.62;100.00
24031;BME280;12240;51.142;22.486;2023-03-22T17:48:51;99028.63;;;10.57;100.00
24031;BME280;12240;51.142;22.486;2023-03-22T17:51:18;99031.41;;;10.56;100.00
24031;BME280;12240;51.142;22.486;2023-03-22T17:53:45;99033.44;;;10.54;100.00
24031;BME280;12240;51.142;22.486;2023-03-22T17:56:12;99001.22;;;10.31;100.00
24031;BME280;12240;51.142;22.486;2023-03-22T17:58:41;99004.06;;;10.30;100.00
24031;BME280;12240;51.142;22.486;2023-03-22T18:01:11;98995.84;;;10.23;100.00
24031;BME280;12240;51.142;22.486;2023-03-22T18:03:39;99023.81;;;10.27;100.00
24031;BME280;12240;51.142;22.486;2023-03-22T18:06:06;99018.78;;;10.16;100.00
24031;BME280;12240;51.142;22.486;2023-03-22T18:08:33;99020.25;;;10.11;100.00
24031;BME280;12240;51.142;22.486;2023-03-22T18:11:01;99010.50;;;10.02;100.00
24031;BME280;12240;51.142;22.486;2023-03-22T18:13:32;99013.69;;;10.05;100.00
24031;BME280;12240;51.142;22.486;2023-03-22T18:16:02;99014.25;;;10.09;100.00
24031;BME280;12240;51.142;22.486;2023-03-22T18:18:30;98888.09;;;9.26;100.00
24031;BME280;12240;51.142;22.486;2023-03-22T18:23:32;98983.81;;;9.86;100.00
24031;BME280;12240;51.142;22.486;2023-03-22T18:26:03;99009.66;;;10.01;100.00
24031;BME280;12240;51.142;22.486;2023-03-22T18:28:35;99007.34;;;9.98;100.00
24031;BME280;12240;51.142;22.486;2023-03-22T18:31:03;99012.81;;;9.97;100.00
24031;BME280;12240;51.142;22.486;2023-03-22T18:33:30;99014.78;;;9.95;100.00
24031;BME280;12240;51.142;22.486;2023-03-22T18:35:58;98907.22;;;9.30;100.00
24031;BME280;12240;51.142;22.486;2023-03-22T18:38:26;98996.94;;;9.87;100.00
24031;BME280;12240;51.142;22.486;2023-03-22T18:40:55;98996.44;;;9.84;100.00
24031;BME280;12240;51.142;22.486;2023-03-22T18:43:23;99007.91;;;9.84;100.00
24031;BME280;12240;51.142;22.486;2023-03-22T18:45:50;99018.69;;;9.83;100.00
24031;BME280;12240;51.142;22.486;2023-03-22T18:48:17;99010.19;;;9.79;100.00
24031;BME280;12240;51.142;22.486;2023-03-22T18:50:44;99001.03;;;9.74;100.00
24031;BME280;12240;51.142;22.486;2023-03-22T18:53:12;99008.03;;;9.75;100.00
24031;BME280;12240;51.142;22.486;2023-03-22T18:55:40;99004.00;;;9.71;100.00
24031;BME280;12240;51.142;22.486;2023-03-22T18:58:10;98968.44;;;9.46;100.00
24031;BME280;12240;51.142;22.486;2023-03-22T19:00:37;98969.09;;;9.48;100.00
24031;BME280;12240;51.142;22.486;2023-03-22T19:03:05;99005.97;;;9.69;100.00
24031;BME280;12240;51.142;22.486;2023-03-22T19:05:32;98998.78;;;9.61;100.00
24031;BME280;12240;51.142;22.486;2023-03-22T19:08:00;98992.28;;;9.56;100.00
24031;BME280;12240;51.142;22.486;2023-03-22T19:10:27;98995.28;;;9.61;100.00
24031;BME280;12240;51.142;22.486;2023-03-22T19:12:54;98980.09;;;9.53;100.00
24031;BME280;12240;51.142;22.486;2023-03-22T19:15:22;98958.50;;;9.30;100.00
24031;BME280;12240;51.142;22.486;2023-03-22T19:17:49;98960.63;;;9.27;100.00
24031;BME280;12240;51.142;22.486;2023-03-22T19:20:16;98998.59;;;9.37;100.00
24031;BME280;12240;51.142;22.486;2023-03-22T19:22:44;98996.59;;;9.39;100.00
24031;BME280;12240;51.142;22.486;2023-03-22T19:25:11;98988.94;;;9.36;100.00
24031;BME280;12240;51.142;22.486;2023-03-22T19:27:39;98984.72;;;9.25;100.00
24031;BME280;12240;51.142;22.486;2023-03-22T19:30:09;98989.22;;;9.25;100.00
24031;BME280;12240;51.142;22.486;2023-03-22T19:32:37;98984.19;;;9.22;100.00
24031;BME280;12240;51.142;22.486;2023-03-22T19:35:05;98948.16;;;9.02;100.00
24031;BME280;12240;51.142;22.486;2023-03-22T19:37:32;98988.38;;;9.24;100.00
24031;BME280;12240;51.142;22.486;2023-03-22T19:40:00;98994.22;;;9.28;100.00
24031;BME280;12240;51.142;22.486;2023-03-22T19:42:28;98979.97;;;9.11;100.00
24031;BME280;12240;51.142;22.486;2023-03-22T19:44:56;98991.25;;;9.13;100.00
24031;BME280;12240;51.142;22.486;2023-03-22T19:47:23;98988.53;;;9.05;100.00
24031;BME280;12240;51.142;22.486;2023-03-22T19:49:51;98944.06;;;8.72;100.00
24031;BME280;12240;51.142;22.486;2023-03-22T19:52:19;98980.78;;;8.94;100.00
24031;BME280;12240;51.142;22.486;2023-03-22T19:54:47;98942.19;;;8.65;100.00
24031;BME280;12240;51.142;22.486;2023-03-22T19:57:14;98963.78;;;8.70;100.00
24031;BME280;12240;51.142;22.486;2023-03-22T19:59:42;98948.53;;;8.54;100.00
24031;BME280;12240;51.142;22.486;2023-03-22T20:02:10;98979.41;;;8.73;100.00
24031;BME280;12240;51.142;22.486;2023-03-22T20:04:37;98954.00;;;8.53;100.00
24031;BME280;12240;51.142;22.486;2023-03-22T20:07:06;98988.38;;;8.72;100.00
24031;BME280;12240;51.142;22.486;2023-03-22T20:09:34;98942.63;;;8.43;100.00
24031;BME280;12240;51.142;22.486;2023-03-22T20:12:01;98990.75;;;8.65;100.00
24031;BME280;12240;51.142;22.486;2023-03-22T20:14:29;98980.16;;;8.65;100.00
24031;BME280;12240;51.142;22.486;2023-03-22T20:16:56;98983.19;;;8.70;100.00
24031;BME280;12240;51.142;22.486;2023-03-22T20:19:24;98982.38;;;8.70;100.00
24031;BME280;12240;51.142;22.486;2023-03-22T20:21:54;98976.06;;;8.71;100.00
24031;BME280;12240;51.142;22.486;2023-03-22T20:24:22;98981.16;;;8.82;100.00
24031;BME280;12240;51.142;22.486;2023-03-22T20:26:49;98982.81;;;8.83;100.00
24031;BME280;12240;51.142;22.486;2023-03-22T20:29:16;98946.09;;;8.61;100.00
24031;BME280;12240;51.142;22.486;2023-03-22T20:31:44;98975.75;;;8.74;100.00
24031;BME280;12240;51.142;22.486;2023-03-22T20:34:11;98956.03;;;8.59;100.00
24031;BME280;12240;51.142;22.486;2023-03-22T20:36:39;98982.69;;;8.67;100.00
24031;BME280;12240;51.142;22.486;2023-03-22T20:39:07;98951.38;;;8.43;100.00
24031;BME280;12240;51.142;22.486;2023-03-22T20:41:35;98979.38;;;8.55;100.00
24031;BME280;12240;51.142;22.486;2023-03-22T20:44:02;98939.91;;;8.25;100.00
24031;BME280;12240;51.142;22.486;2023-03-22T20:46:29;98976.19;;;8.52;100.00
24031;BME280;12240;51.142;22.486;2023-03-22T20:48:57;98978.91;;;8.42;100.00
24031;BME280;12240;51.142;22.486;2023-03-22T20:51:24;98978.22;;;8.40;100.00
24031;BME280;12240;51.142;22.486;2023-03-22T20:53:52;98973.91;;;8.39;100.00
24031;BME280;12240;51.142;22.486;2023-03-22T20:56:19;98947.88;;;8.15;100.00
24031;BME280;12240;51.142;22.486;2023-03-22T20:58:46;98940.78;;;8.16;100.00
24031;BME280;12240;51.142;22.486;2023-03-22T21:01:16;98978.84;;;8.34;100.00
24031;BME280;12240;51.142;22.486;2023-03-22T21:03:46;98971.84;;;8.33;100.00
24031;BME280;12240;51.142;22.486;2023-03-22T21:06:15;98970.34;;;8.31;100.00
24031;BME280;12240;51.142;22.486;2023-03-22T21:08:43;98966.28;;;8.27;100.00
24031;BME280;12240;51.142;22.486;2023-03-22T21:11:13;98960.25;;;8.34;100.00
24031;BME280;12240;51.142;22.486;2023-03-22T21:13:42;98966.91;;;8.38;100.00
24031;BME280;12240;51.142;22.486;2023-03-22T21:19:21;98887.28;;;7.93;100.00
24031;BME280;12240;51.142;22.486;2023-03-22T21:21:50;98946.31;;;8.32;100.00
24031;BME280;12240;51.142;22.486;2023-03-22T21:24:17;98953.63;;;8.48;100.00
24031;BME280;12240;51.142;22.486;2023-03-22T21:26:44;98954.56;;;8.47;100.00
24031;BME280;12240;51.142;22.486;2023-03-22T21:29:12;98948.19;;;8.40;100.00
24031;BME280;12240;51.142;22.486;2023-03-22T21:31:40;98950.16;;;8.38;100.00
24031;BME280;12240;51.142;22.486;2023-03-22T21:34:08;98948.81;;;8.34;100.00
24031;BME280;12240;51.142;22.486;2023-03-22T21:36:37;98960.53;;;8.31;100.00
24031;BME280;12240;51.142;22.486;2023-03-22T21:39:04;98913.91;;;8.01;100.00
24031;BME280;12240;51.142;22.486;2023-03-22T21:41:34;98951.63;;;8.22;100.00
24031;BME280;12240;51.142;22.486;2023-03-22T21:44:10;98958.88;;;8.20;100.00
24031;BME280;12240;51.142;22.486;2023-03-22T21:46:37;98923.84;;;7.99;100.00
24031;BME280;12240;51.142;22.486;2023-03-22T21:49:05;98953.56;;;8.20;100.00
24031;BME280;12240;51.142;22.486;2023-03-22T21:51:35;98948.28;;;8.20;100.00
24031;BME280;12240;51.142;22.486;2023-03-22T21:54:02;98946.63;;;8.19;100.00
24031;BME280;12240;51.142;22.486;2023-03-22T21:56:31;98918.38;;;8.01;100.00
24031;BME280;12240;51.142;22.486;2023-03-22T21:58:59;98945.38;;;8.14;100.00
24031;BME280;12240;51.142;22.486;2023-03-22T22:01:26;98909.25;;;7.86;100.00
24031;BME280;12240;51.142;22.486;2023-03-22T22:03:54;98932.38;;;7.93;100.00
24031;BME280;12240;51.142;22.486;2023-03-22T22:06:22;98947.31;;;7.94;100.00
24031;BME280;12240;51.142;22.486;2023-03-22T22:08:49;98952.94;;;7.72;100.00
24031;BME280;12240;51.142;22.486;2023-03-22T22:11:17;98908.47;;;7.30;100.00
24031;BME280;12240;51.142;22.486;2023-03-22T22:13:44;98957.22;;;7.46;100.00
24031;BME280;12240;51.142;22.486;2023-03-22T22:16:11;98955.28;;;7.39;100.00
24031;BME280;12240;51.142;22.486;2023-03-22T22:18:39;98961.69;;;7.36;100.00
24031;BME280;12240;51.142;22.486;2023-03-22T22:21:14;98961.28;;;7.31;100.00
24031;BME280;12240;51.142;22.486;2023-03-22T22:23:44;98955.97;;;7.31;100.00
24031;BME280;12240;51.142;22.486;2023-03-22T22:26:13;98908.66;;;7.19;100.00
24031;BME280;12240;51.142;22.486;2023-03-22T22:28:43;98947.53;;;7.64;100.00
24031;BME280;12240;51.142;22.486;2023-03-22T22:31:16;98948.72;;;7.89;100.00
24031;BME280;12240;51.142;22.486;2023-03-22T22:33:44;98955.50;;;8.01;100.00
24031;BME280;12240;51.142;22.486;2023-03-22T22:36:12;98950.84;;;8.12;100.00
24031;BME280;12240;51.142;22.486;2023-03-22T22:38:39;98934.63;;;8.15;100.00
24031;BME280;12240;51.142;22.486;2023-03-22T22:41:12;98942.41;;;8.27;100.00
24031;BME280;12240;51.142;22.486;2023-03-22T22:43:44;98945.47;;;8.32;100.00
24031;BME280;12240;51.142;22.486;2023-03-22T22:46:12;98945.16;;;8.35;100.00
24031;BME280;12240;51.142;22.486;2023-03-22T22:48:41;98945.69;;;8.38;100.00
24031;BME280;12240;51.142;22.486;2023-03-22T22:51:16;98903.09;;;8.12;100.00
24031;BME280;12240;51.142;22.486;2023-03-22T22:53:45;98943.72;;;8.40;100.00
24031;BME280;12240;51.142;22.486;2023-03-22T22:56:14;98943.13;;;8.46;100.00
24031;BME280;12240;51.142;22.486;2023-03-22T22:58:42;98945.88;;;8.54;100.00
24031;BME280;12240;51.142;22.486;2023-03-22T23:01:12;98928.88;;;8.47;100.00
24031;BME280;12240;51.142;22.486;2023-03-22T23:03:40;98929.81;;;8.56;100.00
24031;BME280;12240;51.142;22.486;2023-03-22T23:06:11;98916.59;;;8.46;100.00
24031;BME280;12240;51.142;22.486;2023-03-22T23:08:39;98939.53;;;8.65;100.00
24031;BME280;12240;51.142;22.486;2023-03-22T23:11:13;98908.72;;;8.54;100.00
24031;BME280;12240;51.142;22.486;2023-03-22T23:13:43;98927.53;;;8.61;100.00
24031;BME280;12240;51.142;22.486;2023-03-22T23:16:17;98926.22;;;8.47;100.00
24031;BME280;12240;51.142;22.486;2023-03-22T23:18:45;98933.66;;;8.44;100.00
24031;BME280;12240;51.142;22.486;2023-03-22T23:21:30;98933.97;;;8.41;100.00
24031;BME280;12240;51.142;22.486;2023-03-22T23:24:00;98936.91;;;8.38;100.00
24031;BME280;12240;51.142;22.486;2023-03-22T23:26:27;98932.13;;;8.41;100.00
24031;BME280;12240;51.142;22.486;2023-03-22T23:28:55;98937.97;;;8.45;100.00
24031;BME280;12240;51.142;22.486;2023-03-22T23:31:26;98934.56;;;8.52;100.00
24031;BME280;12240;51.142;22.486;2023-03-22T23:33:59;98931.31;;;8.58;100.00
24031;BME280;12240;51.142;22.486;2023-03-22T23:36:31;98933.69;;;8.61;100.00
24031;BME280;12240;51.142;22.486;2023-03-22T23:39:03;98942.34;;;8.63;100.00
24031;BME280;12240;51.142;22.486;2023-03-22T23:41:31;98940.22;;;8.67;100.00
24031;BME280;12240;51.142;22.486;2023-03-22T23:44:02;98890.59;;;8.50;100.00
24031;BME280;12240;51.142;22.486;2023-03-22T23:46:29;98929.97;;;8.72;100.00
24031;BME280;12240;51.142;22.486;2023-03-22T23:48:57;98918.28;;;8.65;100.00
24031;BME280;12240;51.142;22.486;2023-03-22T23:51:24;98926.84;;;8.59;100.00
24031;BME280;12240;51.142;22.486;2023-03-22T23:53:52;98923.13;;;8.52;100.00
24031;BME280;12240;51.142;22.486;2023-03-22T23:56:21;98928.03;;;8.47;100.00
24031;BME280;12240;51.142;22.486;2023-03-22T23:58:50;98931.31;;;8.41;100.00
